Time;durP1;ratioP1;P1;durP2;ratioP2;P2;SDS_P1;SDS_P2;PMS_P1;PMS_P2;Temp;Humidity;BMP_temperature;BMP_pressure;BME280_temperature;BME280_humidity;BME280_pressure;Samples;Min_cycle;Max_cycle;Signal;HPM_P1;HPM_P2
2021/06/16 00:02:15;;;;;;;4.00;3.50;;;21.20;59.30;;;21.21;41.96;95123.59;5038616;28;20577;-81
2021/06/16 00:04:42;;;;;;;4.30;3.30;;;21.10;59.30;;;21.19;41.52;95128.41;5001596;28;20228;-80
2021/06/16 00:07:09;;;;;;;3.30;3.00;;;21.10;59.30;;;21.17;41.65;95127.03;4960916;28;20214;-81
2021/06/16 00:09:36;;;;;;;3.95;3.40;;;21.10;59.20;;;21.14;41.72;95131.03;4846745;29;20237;-80
2021/06/16 00:12:03;;;;;;;5.35;3.15;;;21.00;59.30;;;21.11;41.94;95124.31;4781192;29;20233;-80
2021/06/16 00:16:35;;;;;;;3.20;2.83;;;21.00;59.50;;;21.01;42.12;95126.88;5145117;27;21144;-81
2021/06/16 00:19:02;;;;;;;3.70;3.00;;;21.00;59.70;;;20.95;42.07;95131.34;5089110;28;20233;-80
2021/06/16 00:21:29;;;;;;;3.33;3.03;;;20.90;59.70;;;20.89;42.30;95124.38;5086048;28;20217;-80
2021/06/16 00:23:55;;;;;;;5.00;2.85;;;20.90;59.80;;;20.86;42.20;95122.22;5023961;28;20228;-80
2021/06/16 00:26:22;;;;;;;3.90;3.08;;;20.90;60.10;;;20.79;42.84;95125.06;4988539;28;20194;-80
2021/06/16 00:28:49;;;;;;;3.05;2.78;;;20.80;60.20;;;20.77;42.54;95129.03;4895256;29;20427;-80
2021/06/16 00:31:15;;;;;;;3.50;3.20;;;20.80;60.20;;;20.71;42.68;95120.16;4871819;29;20213;-80
2021/06/16 00:33:42;;;;;;;3.67;2.85;;;20.70;60.20;;;20.67;42.72;95129.72;4747816;29;20246;-80
2021/06/16 00:38:16;;;;;;;4.40;3.17;;;20.70;60.20;;;20.55;42.52;95123.72;5145466;27;20607;-81
2021/06/16 00:40:43;;;;;;;4.22;3.08;;;20.60;60.30;;;20.50;42.95;95118.34;5107202;28;20197;-79
2021/06/16 00:43:10;;;;;;;4.45;3.03;;;20.60;60.50;;;20.43;43.34;95119.34;5107510;28;20542;-80
2021/06/16 00:45:37;;;;;;;3.42;3.03;;;20.50;60.30;;;20.41;42.82;95115.28;5066738;28;20213;-80
2021/06/16 00:48:04;;;;;;;3.88;3.10;;;20.50;60.60;;;20.38;43.45;95113.13;5054523;28;20207;-80
2021/06/16 00:50:38;;;;;;;4.13;3.33;;;20.40;60.70;;;20.32;43.29;95114.94;4975002;28;20622;-81
2021/06/16 00:53:07;;;;;;;4.38;3.40;;;20.30;60.90;;;20.30;43.61;95114.38;4874498;29;20669;-80
2021/06/16 00:55:39;;;;;;;3.83;3.00;;;20.40;61.20;;;20.26;44.17;95113.25;4764975;29;20221;-81
2021/06/16 01:00:18;;;;;;;4.65;3.55;;;20.30;61.20;;;20.15;45.27;95112.31;5130676;27;20651;-80
2021/06/16 01:02:53;;;;;;;4.55;3.50;;;20.30;61.60;;;20.11;45.11;95114.66;5084978;28;20194;-81
2021/06/16 01:05:24;;;;;;;3.45;3.15;;;20.20;61.90;;;20.07;45.00;95108.25;5100226;28;20222;-80
2021/06/16 01:07:58;;;;;;;4.43;3.70;;;20.20;61.60;;;20.02;44.83;95112.69;5070811;28;20222;-81
2021/06/16 01:10:34;;;;;;;3.78;3.10;;;20.20;62.10;;;19.99;45.22;95112.16;5062277;28;20205;-81
2021/06/16 01:13:33;;;;;;;4.18;3.08;;;20.00;61.90;;;19.94;45.28;95116.59;5028130;28;20198;-81
2021/06/16 01:16:29;;;;;;;4.72;3.92;;;20.00;61.50;;;19.90;45.03;95112.81;4823250;29;20225;-80
2021/06/16 01:21:39;;;;;;;4.30;3.30;;;20.00;61.60;;;19.88;45.44;95112.25;5147710;27;21200;-81
2021/06/16 01:24:16;;;;;;;3.85;3.33;;;19.90;62.60;;;19.85;45.70;95116.22;5057675;28;20234;-81
2021/06/16 01:26:54;;;;;;;3.30;3.00;;;19.90;62.40;;;19.81;45.62;95118.53;5102483;28;20236;-81
2021/06/16 01:29:28;;;;;;;3.70;3.30;;;19.90;62.30;;;19.77;46.26;95108.59;5022751;28;20250;-80
2021/06/16 01:31:57;;;;;;;5.13;3.60;;;19.80;62.60;;;19.73;46.03;95110.16;5008239;28;20205;-80
2021/06/16 01:34:25;;;;;;;3.83;3.20;;;19.80;62.50;;;19.67;46.16;95109.25;5005398;28;20687;-80
2021/06/16 01:36:55;;;;;;;4.38;3.35;;;19.80;62.60;;;19.61;46.36;95105.72;4895289;28;20217;-84
2021/06/16 01:39:28;;;;;;;4.10;3.50;;;19.70;62.80;;;19.56;46.08;95108.31;4690102;29;20304;-82
2021/06/16 01:42:13;;;;;;;3.45;3.08;;;19.70;63.20;;;19.46;45.99;95108.16;5149591;27;20379;-80
2021/06/16 01:44:42;;;;;;;3.90;3.47;;;19.60;63.20;;;19.43;45.81;95111.28;5069122;28;20233;-80
2021/06/16 01:47:10;;;;;;;3.95;3.10;;;19.50;62.70;;;19.35;46.29;95097.34;5048665;28;20679;-80
2021/06/16 01:49:38;;;;;;;3.95;3.40;;;19.50;63.00;;;19.34;45.88;95106.38;4997896;28;20600;-80
2021/06/16 01:52:06;;;;;;;4.03;3.40;;;19.50;63.10;;;19.31;45.99;95101.56;4949900;28;20207;-80
2021/06/16 01:54:35;;;;;;;4.90;3.40;;;19.40;63.90;;;19.29;45.88;95102.84;4863258;29;20239;-80
2021/06/16 01:57:03;;;;;;;5.45;3.38;;;19.40;63.00;;;19.29;45.94;95097.53;4793583;29;20211;-80
2021/06/16 01:59:30;;;;;;;6.68;3.67;;;19.30;62.90;;;19.30;46.13;95102.59;4660072;30;20320;-80
2021/06/16 02:03:49;;;;;;;4.90;3.40;;;19.30;63.00;;;19.25;46.13;95107.03;5142720;27;20574;-81
2021/06/16 02:06:19;;;;;;;4.40;3.35;;;19.40;63.00;;;19.24;46.35;95105.41;5107739;28;20200;-81
2021/06/16 02:08:49;;;;;;;3.50;3.17;;;19.30;62.90;;;19.22;46.43;95104.88;5123764;27;20574;-81
2021/06/16 02:11:20;;;;;;;4.13;3.20;;;19.30;63.90;;;19.19;46.61;95098.97;5041553;28;20294;-80
2021/06/16 02:13:56;;;;;;;5.15;3.55;;;19.20;63.80;;;19.17;46.20;95105.56;4966270;28;20239;-80
2021/06/16 02:16:31;;;;;;;4.05;3.20;;;19.20;62.80;;;19.15;46.18;95107.66;4934060;28;20550;-81
2021/06/16 02:19:13;;;;;;;3.55;3.25;;;19.20;62.80;;;19.08;46.52;95097.19;4876642;29;20233;-80
2021/06/16 02:21:40;;;;;;;5.38;3.30;;;19.10;62.80;;;19.05;46.21;95102.97;4653965;29;20653;-80
2021/06/16 02:24:14;;;;;;;5.80;3.53;;;19.20;62.80;;;19.03;46.52;95102.44;5100864;27;20860;-81
2021/06/16 02:26:41;;;;;;;4.25;3.63;;;19.10;62.70;;;18.98;46.73;95095.19;5073875;28;20201;-80
2021/06/16 02:29:11;;;;;;;4.15;3.70;;;19.10;62.70;;;18.91;46.96;95098.97;5064816;28;20246;-81
2021/06/16 02:31:40;;;;;;;4.75;3.45;;;19.00;62.70;;;18.89;46.93;95099.22;5025359;28;20202;-80
2021/06/16 02:34:08;;;;;;;6.38;3.92;;;19.00;63.10;;;18.85;47.15;95092.78;4998780;28;20245;-80
2021/06/16 02:36:46;;;;;;;5.00;3.78;;;18.90;63.10;;;18.79;47.39;95097.19;4977456;28;20264;-80
2021/06/16 02:39:19;;;;;;;5.22;3.65;;;18.90;63.50;;;18.75;47.91;95103.22;4972931;28;20233;-81
2021/06/16 02:41:47;;;;;;;4.40;3.53;;;18.90;63.80;;;18.70;47.93;95107.41;4856968;29;20271;-81
2021/06/16 02:46:29;;;;;;;5.15;3.72;;;18.90;63.60;;;18.60;48.03;95106.41;5149797;27;21141;-81
2021/06/16 02:48:57;;;;;;;4.20;3.78;;;18.80;63.60;;;18.58;48.00;95100.53;5111567;28;20232;-80
2021/06/16 02:51:24;;;;;;;4.07;3.63;;;18.70;63.50;;;18.52;47.59;95103.09;5034732;28;20298;-80
2021/06/16 02:53:52;;;;;;;3.92;3.45;;;18.70;63.50;;;18.50;47.87;95099.06;5048774;28;20227;-79
2021/06/16 02:56:21;;;;;;;3.90;3.35;;;18.60;63.60;;;18.48;47.55;95099.31;5035572;28;20227;-80
2021/06/16 02:58:51;;;;;;;5.53;3.20;;;18.60;63.60;;;18.44;47.61;95097.34;4984685;28;20230;-80
2021/06/16 03:01:19;;;;;;;3.90;3.00;;;18.60;63.70;;;18.40;47.67;95107.66;4955904;28;20730;-80
2021/06/16 03:03:52;;;;;;;3.83;3.28;;;18.50;63.60;;;18.32;47.81;95103.53;4865419;29;20232;-80
2021/06/16 03:08:08;;;;;;;4.50;3.58;;;18.50;64.20;;;18.19;47.53;95106.44;5147366;27;20608;-80
2021/06/16 03:10:35;;;;;;;5.72;3.67;;;18.40;64.60;;;18.15;47.93;95106.09;5068998;28;20255;-80
2021/06/16 03:13:03;;;;;;;4.68;3.40;;;18.40;63.80;;;18.12;47.98;95105.78;5086082;28;20288;-80
2021/06/16 03:15:31;;;;;;;4.28;3.30;;;18.30;64.40;;;18.09;48.06;95104.41;5058211;28;20668;-80
2021/06/16 03:17:59;;;;;;;5.20;3.80;;;18.30;64.10;;;18.07;47.90;95111.78;4978245;28;20213;-80
2021/06/16 03:20:30;;;;;;;5.82;3.47;;;18.20;64.10;;;18.04;48.01;95105.09;4907085;29;20707;-82
2021/06/16 03:22:58;;;;;;;4.05;3.42;;;18.20;64.30;;;18.06;48.34;95112.81;4819721;29;20549;-80
2021/06/16 03:25:25;;;;;;;4.35;3.17;;;18.20;64.30;;;18.06;48.18;95116.25;4689670;30;20550;-80
2021/06/16 03:29:35;;;;;;;6.50;3.50;;;18.10;64.20;;;18.05;47.92;95119.97;5134913;27;21089;-79
2021/06/16 03:32:05;;;;;;;3.67;3.28;;;18.20;64.50;;;18.05;48.42;95121.81;5107230;28;20224;-79
2021/06/16 03:34:31;;;;;;;4.35;3.65;;;18.10;64.70;;;18.04;48.04;95125.50;5091841;28;20307;-80
2021/06/16 03:37:01;;;;;;;6.40;3.20;;;18.10;64.50;;;18.04;48.59;95115.72;5077205;28;20318;-80
2021/06/16 03:39:30;;;;;;;4.95;3.75;;;18.10;65.00;;;18.04;48.36;95122.84;4978477;28;20250;-79
2021/06/16 03:41:56;;;;;;;4.05;3.30;;;18.10;64.80;;;18.05;48.50;95121.81;4948387;28;20268;-79
2021/06/16 03:44:26;;;;;;;4.38;3.58;;;18.10;64.70;;;18.05;48.52;95127.94;4889133;29;20265;-80
2021/06/16 03:46:56;;;;;;;4.47;3.20;;;18.10;65.00;;;18.06;48.46;95124.22;4706501;29;20296;-80
2021/06/16 03:51:31;;;;;;;4.20;3.17;;;18.10;65.20;;;18.05;48.56;95129.78;5147481;27;20558;-80
2021/06/16 03:53:58;;;;;;;3.97;3.30;;;18.10;65.10;;;18.08;48.51;95121.34;5083542;28;20225;-80
2021/06/16 03:56:27;;;;;;;4.28;3.72;;;18.10;65.10;;;18.10;48.75;95121.91;5064438;28;20238;-80
2021/06/16 03:58:55;;;;;;;4.10;3.60;;;18.10;65.30;;;18.15;49.06;95124.69;5047493;28;20226;-80
2021/06/16 04:01:22;;;;;;;7.70;3.70;;;18.10;65.40;;;18.19;48.95;95127.69;4986714;28;20581;-81
2021/06/16 04:03:50;;;;;;;4.13;3.72;;;18.10;66.30;;;18.22;49.31;95127.19;4909410;29;20236;-80
2021/06/16 04:06:17;;;;;;;5.18;3.58;;;18.10;65.50;;;18.31;49.15;95127.63;4877474;29;20209;-80
2021/06/16 04:08:45;;;;;;;6.50;3.40;;;18.20;65.90;;;18.38;49.37;95128.31;4761596;29;20300;-82
2021/06/16 04:12:57;;;;;;;5.03;3.60;;;18.30;66.10;;;18.45;49.24;95129.00;5147444;27;20528;-81
2021/06/16 04:15:24;;;;;;;8.15;3.80;;;18.40;65.90;;;18.53;49.46;95133.13;5096416;28;20199;-81
2021/06/16 04:17:53;;;;;;;5.20;3.60;;;18.30;66.10;;;18.61;49.67;95132.75;5049103;28;20264;-81
2021/06/16 04:20:20;;;;;;;4.30;3.90;;;18.40;66.40;;;18.66;49.24;95127.53;5027920;28;20229;-81
2021/06/16 04:22:46;;;;;;;4.60;4.10;;;18.40;66.50;;;18.73;49.35;95130.03;5058133;28;20241;-81
2021/06/16 04:25:13;;;;;;;4.45;4.00;;;18.60;66.50;;;18.84;49.81;95133.69;4974051;28;20224;-81
2021/06/16 04:27:41;;;;;;;4.50;3.78;;;18.60;66.60;;;18.90;50.06;95130.09;4900975;29;20214;-81
2021/06/16 04:30:13;;;;;;;5.13;3.92;;;18.60;66.70;;;18.98;50.12;95136.88;4706995;29;20243;-81
2021/06/16 04:34:39;;;;;;;5.00;4.47;;;18.70;67.10;;;19.09;49.53;95132.56;5135157;27;20583;-81
2021/06/16 04:37:07;;;;;;;4.85;3.90;;;18.80;66.40;;;19.19;49.73;95138.06;5108334;28;20209;-81
2021/06/16 04:39:34;;;;;;;4.85;3.72;;;18.90;66.50;;;19.25;49.58;95138.94;5114037;27;20289;-81
2021/06/16 04:42:01;;;;;;;4.72;4.32;;;18.90;66.70;;;19.33;49.49;95130.56;5089575;27;20216;-80
2021/06/16 04:44:28;;;;;;;6.45;4.55;;;19.00;66.60;;;19.43;49.45;95140.56;5054053;28;20262;-81
2021/06/16 04:46:55;;;;;;;6.22;4.53;;;19.10;66.70;;;19.50;49.66;95138.53;5007636;28;20211;-81
2021/06/16 04:49:22;;;;;;;6.35;4.93;;;19.20;66.70;;;19.58;49.74;95137.31;4918089;28;20292;-81
2021/06/16 04:51:50;;;;;;;6.30;5.05;;;19.20;66.80;;;19.65;49.61;95135.31;4789089;29;20670;-82
2021/06/16 04:56:53;;;;;;;4.85;4.38;;;19.40;66.90;;;19.81;49.72;95139.00;5149883;27;20562;-81
2021/06/16 04:59:19;;;;;;;5.03;4.30;;;19.40;67.10;;;19.89;50.11;95135.16;5108446;28;20221;-81
2021/06/16 05:01:46;;;;;;;5.93;4.75;;;19.50;67.10;;;19.97;49.64;95134.75;5090147;27;20229;-81
2021/06/16 05:04:12;;;;;;;7.57;5.38;;;19.60;67.10;;;20.05;49.56;95134.28;5065054;28;20609;-81
2021/06/16 05:06:39;;;;;;;6.25;4.63;;;19.70;67.10;;;20.12;49.73;95126.16;4999888;28;20201;-80
2021/06/16 05:09:05;;;;;;;7.18;4.57;;;19.80;67.30;;;20.21;50.18;95127.31;4963083;28;20259;-81
2021/06/16 05:11:32;;;;;;;5.90;4.50;;;19.80;67.20;;;20.28;49.83;95122.59;4897395;28;20282;-81
2021/06/16 05:13:58;;;;;;;6.65;5.15;;;19.90;67.00;;;20.36;50.04;95124.03;4747856;29;20320;-81
2021/06/16 05:17:50;;;;;;;5.60;4.50;;;20.00;67.00;;;20.48;49.78;95134.56;5136477;27;20537;-81
2021/06/16 05:20:16;;;;;;;4.95;4.38;;;20.10;66.90;;;20.57;49.86;95126.94;5120204;28;20273;-81
2021/06/16 05:22:48;;;;;;;6.18;4.68;;;20.20;66.80;;;20.63;49.83;95116.09;5092317;28;20244;-80
2021/06/16 05:25:17;;;;;;;6.75;4.93;;;20.20;67.30;;;20.76;49.59;95136.25;5104412;28;20224;-80
2021/06/16 05:27:44;;;;;;;7.00;5.05;;;20.30;67.30;;;20.87;49.67;95131.00;5045803;28;20209;-80
2021/06/16 05:30:11;;;;;;;6.55;5.72;;;20.40;67.20;;;20.94;49.89;95129.75;5016544;28;20595;-80
2021/06/16 05:32:39;;;;;;;6.90;5.07;;;20.50;67.20;;;21.04;49.53;95137.03;4965814;28;20210;-81
2021/06/16 05:35:07;;;;;;;7.22;5.40;;;20.60;67.10;;;21.13;49.43;95137.41;4860079;28;20614;-81
2021/06/16 05:40:03;;;;;;;6.40;5.32;;;20.70;66.90;;;21.30;49.07;95131.97;5132384;27;20652;-80
2021/06/16 05:42:29;;;;;;;6.13;5.53;;;20.80;66.70;;;21.40;48.94;95142.69;5108617;28;20200;-81
2021/06/16 05:44:57;;;;;;;6.90;6.18;;;20.90;66.60;;;21.48;49.14;95129.94;5085082;28;20655;-81
2021/06/16 05:47:24;;;;;;;9.93;8.32;;;21.00;66.70;;;21.58;48.76;95132.72;5103406;28;20205;-81
2021/06/16 05:49:50;;;;;;;15.07;12.23;;;21.10;66.60;;;21.68;48.96;95135.47;5061114;28;20686;-82
2021/06/16 05:52:17;;;;;;;18.80;14.13;;;21.30;66.40;;;21.77;48.36;95129.66;4964845;28;20207;-82
2021/06/16 05:54:43;;;;;;;21.17;13.93;;;21.30;66.20;;;21.86;48.90;95136.09;4912049;28;20253;-81
2021/06/16 05:57:10;;;;;;;17.27;12.80;;;21.30;66.30;;;21.95;48.40;95133.75;4830549;29;20228;-81
2021/06/16 06:01:28;;;;;;;14.43;11.77;;;21.50;66.30;;;22.08;48.48;95138.63;5145653;27;20653;-81
2021/06/16 06:03:55;;;;;;;12.57;9.90;;;21.50;65.90;;;22.17;47.81;95139.75;5091076;28;20274;-82
2021/06/16 06:06:21;;;;;;;10.90;9.77;;;21.60;65.70;;;22.27;48.06;95144.34;5068064;28;20214;-82
2021/06/16 06:08:48;;;;;;;12.98;9.98;;;21.70;65.70;;;22.36;47.94;95139.31;5069957;28;20220;-81
2021/06/16 06:11:15;;;;;;;11.10;8.77;;;21.80;65.90;;;22.44;47.78;95140.72;5060958;28;20212;-80
2021/06/16 06:13:41;;;;;;;10.40;8.38;;;21.90;65.90;;;22.53;48.05;95142.63;4993875;28;20653;-81
2021/06/16 06:16:08;;;;;;;9.20;7.82;;;22.00;65.90;;;22.63;47.86;95149.06;4901925;29;20199;-82
2021/06/16 06:18:35;;;;;;;8.77;7.22;;;22.10;65.80;;;22.74;47.81;95144.56;4803542;29;20232;-81
2021/06/16 06:23:39;;;;;;;10.85;6.30;;;22.10;65.60;;;22.93;47.14;95148.34;5143360;27;20347;-81
2021/06/16 06:26:05;;;;;;;7.03;5.97;;;22.30;65.30;;;23.00;47.54;95146.22;5074882;28;20194;-82
2021/06/16 06:28:31;;;;;;;8.80;6.28;;;22.40;65.40;;;23.09;47.33;95143.81;5086858;28;20223;-81
2021/06/16 06:30:58;;;;;;;9.23;6.40;;;22.50;65.50;;;23.22;47.33;95149.75;5051326;28;20221;-81
2021/06/16 06:33:25;;;;;;;7.47;5.78;;;22.60;65.60;;;23.28;47.41;95144.16;5042451;28;20278;-82
2021/06/16 06:35:51;;;;;;;8.38;6.57;;;22.70;65.60;;;23.39;47.17;95150.31;5068177;28;20282;-81
2021/06/16 06:38:18;;;;;;;8.55;6.30;;;22.80;65.70;;;23.46;46.87;95150.84;5006926;28;20329;-82
2021/06/16 06:40:45;;;;;;;8.85;6.20;;;22.80;65.70;;;23.54;46.77;95154.88;4817341;29;20698;-81
2021/06/16 06:45:49;;;;;;;8.45;5.82;;;22.90;65.80;;;23.71;46.89;95151.13;5132685;27;20537;-82
2021/06/16 06:48:15;;;;;;;9.18;5.80;;;23.10;65.80;;;23.78;46.84;95144.41;5082825;28;20318;-82
2021/06/16 06:50:41;;;;;;;6.38;5.68;;;23.20;65.90;;;23.89;46.72;95144.38;5021454;28;20208;-82
2021/06/16 06:53:08;;;;;;;7.18;5.72;;;23.20;65.60;;;23.95;46.95;95144.16;5030586;28;20207;-82
2021/06/16 06:55:35;;;;;;;8.52;6.22;;;23.30;65.60;;;24.07;46.76;95141.19;4997604;28;20584;-82
2021/06/16 06:58:02;;;;;;;9.20;5.85;;;23.40;65.60;;;24.16;46.51;95135.25;4919048;29;20209;-82
2021/06/16 07:00:29;;;;;;;7.07;5.90;;;23.50;65.60;;;24.24;46.63;95140.88;4848122;29;20211;-82
2021/06/16 07:02:56;;;;;;;7.05;5.80;;;23.60;65.30;;;24.35;46.40;95135.47;4708617;29;20232;-82
2021/06/16 07:07:30;;;;;;;6.57;5.75;;;23.70;65.40;;;24.49;46.31;95131.13;5150560;27;20560;-82
2021/06/16 07:09:58;;;;;;;9.70;5.88;;;23.90;65.10;;;24.61;46.34;95130.81;5129226;27;20308;-82
2021/06/16 07:12:25;;;;;;;12.02;5.68;;;23.90;65.20;;;24.71;46.32;95127.31;5128188;27;20207;-82
2021/06/16 07:14:54;;;;;;;6.85;5.85;;;24.00;65.10;;;24.78;46.12;95125.91;5097274;28;20238;-82
2021/06/16 07:17:22;;;;;;;10.05;5.47;;;24.10;65.00;;;24.89;45.77;95129.34;5060676;28;20243;-82
2021/06/16 07:19:50;;;;;;;6.85;6.15;;;24.20;64.70;;;24.98;45.69;95132.22;5034438;28;20230;-82
2021/06/16 07:22:17;;;;;;;10.15;5.57;;;24.30;64.40;;;25.07;45.16;95121.72;4998342;28;20238;-82
2021/06/16 07:24:43;;;;;;;7.30;5.53;;;24.40;64.20;;;25.17;45.17;95121.66;4865606;28;20253;-82
2021/06/16 07:29:42;;;;;;;9.35;5.75;;;24.50;64.20;;;25.35;45.05;95119.38;5134276;27;20418;-82
2021/06/16 07:32:09;;;;;;;8.23;5.50;;;24.60;64.00;;;25.45;44.64;95121.19;5069577;28;20201;-82
2021/06/16 07:34:36;;;;;;;7.40;5.13;;;24.70;63.90;;;25.53;44.90;95120.59;5086194;28;21979;-81
2021/06/16 07:37:04;;;;;;;7.85;5.72;;;24.80;64.00;;;25.60;45.11;95120.25;5050352;28;20560;-82
2021/06/16 07:39:30;;;;;;;6.93;5.70;;;24.90;64.00;;;25.69;44.57;95119.38;5038313;28;20317;-82
2021/06/16 07:41:57;;;;;;;8.20;5.63;;;25.00;63.80;;;25.77;44.58;95126.03;4892963;29;20274;-82
2021/06/16 07:44:23;;;;;;;7.78;5.68;;;25.00;63.50;;;25.81;44.44;95107.44;4818494;29;20314;-82
2021/06/16 07:46:50;;;;;;;7.38;5.63;;;25.10;63.40;;;25.91;44.03;95122.66;4716498;29;20229;-81
2021/06/16 07:51:23;;;;;;;6.85;5.40;;;25.20;63.40;;;26.01;44.14;95119.88;5150687;27;21136;-82
2021/06/16 07:53:50;;;;;;;5.93;5.22;;;25.30;63.20;;;26.10;44.49;95120.06;5103120;28;20294;-82
2021/06/16 07:56:16;;;;;;;7.47;5.88;;;25.40;63.40;;;26.15;44.09;95110.06;5073568;28;20218;-81
2021/06/16 07:58:43;;;;;;;7.43;5.80;;;25.50;63.50;;;26.26;43.95;95115.34;5050870;28;20592;-82
2021/06/16 08:01:09;;;;;;;6.68;5.35;;;25.50;63.30;;;26.35;43.82;95121.69;5046271;28;20231;-81
2021/06/16 08:03:36;;;;;;;8.07;5.75;;;25.60;63.20;;;26.41;44.05;95117.84;5005619;28;20230;-82
2021/06/16 08:06:02;;;;;;;11.25;5.43;;;25.70;63.10;;;26.49;43.67;95121.78;4948241;28;20981;-81
2021/06/16 08:08:33;;;;;;;8.23;5.80;;;25.70;63.10;;;26.55;43.63;95117.13;4773126;29;20240;-81
2021/06/16 08:12:36;;;;;;;6.90;5.35;;;25.80;63.00;;;26.64;43.71;95126.97;5149922;27;20534;-81
2021/06/16 08:15:06;;;;;;;6.43;5.45;;;25.90;62.80;;;26.71;43.17;95118.56;5092365;28;20275;-82
2021/06/16 08:17:34;;;;;;;7.40;5.65;;;26.00;62.60;;;26.76;43.21;95113.13;5086609;28;20211;-81
2021/06/16 08:20:02;;;;;;;6.63;5.57;;;26.00;62.50;;;26.83;43.67;95116.25;5075045;28;20223;-81
2021/06/16 08:22:29;;;;;;;7.82;5.55;;;26.10;62.60;;;26.90;43.32;95120.47;5056828;28;20204;-82
2021/06/16 08:25:00;;;;;;;7.18;5.43;;;26.10;62.30;;;26.97;43.52;95116.31;5005044;28;20238;-82
2021/06/16 08:27:27;;;;;;;6.00;5.10;;;26.20;62.10;;;27.08;42.68;95110.81;4868137;28;20603;-82
2021/06/16 08:29:54;;;;;;;7.72;5.55;;;26.30;62.20;;;27.13;42.78;95110.72;4760673;29;20280;-82
2021/06/16 08:34:32;;;;;;;7.57;5.25;;;26.30;62.00;;;27.30;42.68;95119.06;5121659;27;20883;-82
2021/06/16 08:36:58;;;;;;;6.22;5.63;;;26.50;61.80;;;27.38;41.72;95111.41;5091013;28;20215;-81
2021/06/16 08:39:26;;;;;;;7.47;5.05;;;26.60;61.40;;;27.47;42.33;95123.16;5060684;28;20288;-84
2021/06/16 08:41:53;;;;;;;7.18;5.38;;;26.70;61.70;;;27.55;41.66;95113.59;5034225;28;20214;-83
2021/06/16 08:44:20;;;;;;;7.65;5.10;;;26.70;61.30;;;27.64;41.81;95114.53;4996685;28;20315;-82
2021/06/16 08:46:48;;;;;;;5.57;4.50;;;26.80;61.30;;;27.71;41.67;95109.56;4935698;28;20214;-82
2021/06/16 08:49:15;;;;;;;5.38;4.85;;;26.90;61.00;;;27.76;41.02;95106.75;4878081;29;20242;-83
2021/06/16 08:51:42;;;;;;;5.88;4.78;;;27.00;61.10;;;27.84;40.87;95109.88;4739516;29;20639;-82
2021/06/16 08:56:03;;;;;;;5.53;4.30;;;27.00;60.70;;;27.95;40.42;95100.50;5149979;27;20557;-82
2021/06/16 08:58:39;;;;;;;5.20;4.35;;;27.20;60.10;;;27.99;40.06;95108.78;5109511;27;20392;-82
2021/06/16 09:01:09;;;;;;;6.18;4.70;;;27.20;59.70;;;28.01;40.50;95093.91;5108090;28;20271;-83
2021/06/16 09:03:37;;;;;;;6.22;4.22;;;27.30;60.00;;;28.08;40.12;95101.63;5029444;28;20237;-84
2021/06/16 09:06:05;;;;;;;7.78;4.57;;;27.30;60.00;;;28.16;39.70;95102.84;4960138;28;20207;-82
2021/06/16 09:08:32;;;;;;;5.40;4.32;;;27.40;59.40;;;28.22;39.83;95101.63;4942123;28;20644;-83
2021/06/16 09:10:59;;;;;;;4.65;4.07;;;27.40;59.70;;;28.31;39.52;95099.84;4867733;28;20572;-82
2021/06/16 09:13:27;;;;;;;7.45;4.40;;;27.50;59.40;;;28.37;39.37;95101.34;4726451;29;20236;-83
2021/06/16 09:18:26;;;;;;;5.55;4.78;;;27.50;59.00;;;28.55;38.88;95104.22;5140272;27;20332;-82
2021/06/16 09:20:57;;;;;;;5.70;4.20;;;27.70;58.50;;;28.62;38.66;95104.59;5087343;28;20201;-82
2021/06/16 09:23:28;;;;;;;5.22;4.53;;;27.80;57.70;;;28.66;38.06;95108.31;5072129;28;20254;-82
2021/06/16 09:26:18;;;;;;;5.78;4.35;;;27.90;57.70;;;28.67;38.15;95112.59;5081375;28;20663;-82
2021/06/16 09:28:51;;;;;;;5.18;3.67;;;27.90;57.70;;;28.72;37.95;95114.41;4979226;28;20701;-82
2021/06/16 09:31:21;;;;;;;6.75;4.53;;;28.00;57.30;;;28.78;38.12;95113.19;4918095;28;20231;-82
2021/06/16 09:33:50;;;;;;;6.57;3.90;;;28.00;56.90;;;28.84;37.98;95108.50;4862367;29;20281;-82
2021/06/16 09:38:53;;;;;;;5.97;4.82;;;28.00;56.90;;;28.96;37.06;95114.16;5141885;27;20421;-82
2021/06/16 09:41:23;;;;;;;5.22;4.65;;;28.20;56.80;;;28.99;37.69;95110.84;5079969;28;20298;-83
2021/06/16 09:43:55;;;;;;;4.15;3.63;;;28.20;56.70;;;29.03;37.62;95111.84;5066883;28;20232;-82
2021/06/16 09:46:22;;;;;;;4.25;3.83;;;28.30;57.20;;;29.10;37.09;95107.91;4985439;28;20687;-83
2021/06/16 09:48:51;;;;;;;8.95;4.65;;;28.30;56.50;;;29.12;36.96;95109.19;4858891;29;20244;-82
2021/06/16 09:51:27;;;;;;;6.40;3.85;;;28.30;56.30;;;29.18;37.90;95102.56;4762324;29;20227;-83
2021/06/16 09:54:14;;;;;;;6.10;3.97;;;28.40;56.80;;;29.26;37.09;95106.47;4660284;30;20249;-82
2021/06/16 09:57:34;;;;;;;4.93;3.90;;;28.40;56.60;;;29.34;36.80;95103.03;5124349;27;20661;-80
2021/06/16 10:00:09;;;;;;;5.40;4.20;;;28.60;56.20;;;29.45;36.97;95108.22;5095838;28;20268;-82
2021/06/16 10:02:41;;;;;;;3.95;3.53;;;28.60;56.00;;;29.54;36.43;95095.53;5030603;28;20301;-81
2021/06/16 10:05:11;;;;;;;4.40;3.72;;;28.70;55.80;;;29.61;36.50;95101.31;5014335;28;20245;-82
2021/06/16 10:07:40;;;;;;;7.68;4.05;;;28.70;55.60;;;29.69;36.41;95097.84;4950899;28;20210;-82
2021/06/16 10:10:11;;;;;;;4.30;3.83;;;28.80;55.20;;;29.78;36.68;95097.91;4848263;29;20261;-81
2021/06/16 10:12:44;;;;;;;5.07;3.90;;;28.90;55.50;;;29.89;36.75;95103.84;4772011;29;20220;-83
2021/06/16 10:15:13;;;;;;;6.45;3.72;;;29.00;55.40;;;30.00;36.74;95107.91;4618378;30;20244;-83
2021/06/16 10:20:00;;;;;;;6.32;3.60;;;29.10;55.70;;;30.15;35.57;95100.47;5129795;27;20586;-83
2021/06/16 10:22:27;;;;;;;4.80;3.88;;;29.20;54.20;;;30.21;35.47;95101.16;5097626;28;20195;-83
2021/06/16 10:24:55;;;;;;;4.63;3.58;;;29.30;54.20;;;30.25;35.42;95096.69;5084280;28;20661;-83
2021/06/16 10:27:32;;;;;;;4.35;3.80;;;29.40;53.70;;;30.22;35.32;95100.03;5019310;28;20248;-82
2021/06/16 10:30:13;;;;;;;3.80;3.40;;;29.40;53.80;;;30.22;35.75;95098.13;4943555;28;20717;-82
2021/06/16 10:32:45;;;;;;;6.50;3.95;;;29.40;54.00;;;30.26;35.27;95099.09;4848537;29;20316;-82
2021/06/16 10:35:13;;;;;;;5.38;4.00;;;29.50;53.80;;;30.35;35.26;95099.91;4716937;29;20294;-82
2021/06/16 10:37:43;;;;;;;4.15;3.75;;;29.50;53.90;;;30.42;34.91;95095.94;4548479;30;20224;-82
2021/06/16 10:40:29;;;;;;;4.15;3.70;;;29.60;53.60;;;30.50;35.42;95106.84;5113164;27;20323;-82
2021/06/16 10:43:01;;;;;;;4.53;3.65;;;29.60;53.50;;;30.56;35.14;95102.06;5055390;28;20208;-84
2021/06/16 10:45:37;;;;;;;4.35;3.97;;;29.70;53.10;;;30.64;35.17;95097.81;5098965;28;20267;-83
2021/06/16 10:48:10;;;;;;;4.40;4.00;;;29.80;53.50;;;30.70;35.41;95101.94;5014728;28;20197;-83
2021/06/16 10:50:46;;;;;;;5.65;4.05;;;29.80;53.80;;;30.73;35.07;95101.31;4916266;28;20205;-82
2021/06/16 10:53:18;;;;;;;4.13;3.55;;;29.90;53.50;;;30.81;34.84;95099.75;4834782;29;20230;-82
2021/06/16 10:55:54;;;;;;;5.53;4.07;;;30.00;53.40;;;30.89;34.64;95098.94;4687711;30;20220;-83
2021/06/16 10:59:44;;;;;;;4.68;3.85;;;30.00;53.10;;;30.92;34.85;95087.47;5124482;27;20551;-82
2021/06/16 11:02:14;;;;;;;5.45;3.65;;;30.20;53.40;;;31.04;33.97;95094.16;5087375;28;20199;-83
2021/06/16 11:04:44;;;;;;;4.63;3.80;;;30.20;52.70;;;31.06;33.91;95092.72;5029978;28;20222;-82
2021/06/16 11:07:29;;;;;;;6.00;3.65;;;30.20;52.60;;;31.08;33.94;95093.25;4988708;28;20266;-82
2021/06/16 11:10:01;;;;;;;5.28;3.75;;;30.30;53.20;;;31.09;33.70;95094.03;4961476;28;20236;-82
2021/06/16 11:12:29;;;;;;;5.03;4.18;;;30.30;51.90;;;31.10;34.10;95101.84;4847018;29;20264;-82
2021/06/16 11:14:58;;;;;;;5.03;4.00;;;30.30;52.00;;;31.16;33.11;95085.44;4754102;29;20246;-82
2021/06/16 11:20:36;;;;;;;3.95;3.55;;;30.40;50.90;;;31.35;33.07;95085.88;5140532;27;21082;-83
2021/06/16 11:23:07;;;;;;;4.35;3.80;;;30.50;52.90;;;31.44;33.57;95083.97;5080318;28;20203;-82
2021/06/16 11:25:40;;;;;;;5.53;3.63;;;30.60;51.50;;;31.54;33.27;95082.03;5033959;28;20299;-82
2021/06/16 11:28:09;;;;;;;3.13;2.83;;;30.60;50.90;;;31.60;32.52;95086.97;5028372;28;20200;-83